Pamo Valley (237) Station Data

Red Flag Warning: No
Fire Weather Zone: 250
SDGE Region: Ramona
Lat/Lon: 33.143/-116.848

Observations

Time Wind Speed/Gust Temp(F) RH Fuel Moist Fuel Temp(F) Dewpt(F) Tmax(F) Tmin(F) Accum Precip 10-min Precip SL Press(mb)
6/22 5:00am 350 1 G 1 58° 96% - - 57° 65.9° 57° - - -
6/22 4:50am 315 1 G 1 57° 96% - - 56° 65.9° 57° - - -
6/22 4:40am 295 1 G 1 58° 96% - - 56° 65.9° 57.3° - - -
6/22 4:30am 334 1 G 1 58° 96% - - 57° 65.9° 57.6° - - -
6/22 4:20am 354 1 G 2 58° 95% - - 57° 65.9° 57.6° - - -
6/22 4:10am 321 0 G 1 58° 95% - - 57° 65.9° 57.7° - - -
6/22 4:00am 304 1 G 2 58° 95% - - 57° 65.9° 57.7° - - -
6/22 3:50am 248 1 G 2 58° 94% - - 57° 65.9° 57.9° - - -
6/22 3:40am 250 0 G 2 58° 94% - - 57° 65.9° 57.9° - - -
6/22 3:30am 224 1 G 3 58° 93% - - 56° 65.9° 57.9° - - -
6/22 3:20am 200 2 G 4 59° 93% - - 57° 65.9° 58° - - -
6/22 3:10am 182 2 G 3 59° 91% - - 56° 65.9° 58° - - -
6/22 3:00am 250 0 G 1 59° 89% - - 55° 65.9° 58° - - -
6/22 2:50am 263 0 G 1 59° 89% - - 56° 65.9° 58.4° - - -
6/22 2:40am 233 0 G 1 60° 90% - - 57° 65.9° 58.8° - - -
6/22 2:30am 83 0 G 1 60° 89% - - 57° 65.9° 59.4° - - -
6/22 2:20am 20 0 G 1 60° 89% - - 57° 65.9° 59.5° - - -
6/22 2:10am 195 1 G 3 61° 89% - - 57° 65.9° 59.9° - - -
6/22 2:00am 176 1 G 3 61° 89% - - 58° 65.9° 60.6° - - -
6/22 1:50am 189 1 G 3 61° 88% - - 57° 65.9° 60.8° - - -
6/22 1:40am 237 1 G 2 61° 86% - - 57° 65.9° 60.8° - - -
6/22 1:30am 111 0 G 1 62° 86% - - 57° 65.9° 61.3° - - -
6/22 1:20am 202 2 G 5 62° 85% - - 58° 65.9° 61.6° - - -
6/22 1:10am 191 4 G 6 63° 84% - - 58° 65.9° 62.3° - - -
6/22 1:00am 197 1 G 3 63° 82% - - 57° 65.9° 62.8° - - -
6/22 12:50am 0 0 G 0 63° 81% - - 57° 65.9° 62.8° - - -
6/22 12:40am 229 1 G 1 63° 81% - - 57° 65.9° 62.8° - - -
6/22 12:30am 221 1 G 2 64° 78% - - 57° 65.9° 63.5° - - -
6/22 12:20am 203 0 G 1 65° 77% - - 57° 65.9° 64.5° - - -
6/22 12:10am 0 0 G 0 65° 77% - - 58° 65.9° 64.9° - - -
6/22 12:00am 0 0 G 0 66° 77% - - 58° 102.7° 57.1° - - -
6/21 11:50pm 243 0 G 0 66° 76% - - 58° 102.7° 57.1° - - -
6/21 11:40pm 256 0 G 1 66° 75% - - 58° 102.7° 57.1° - - -
6/21 11:30pm 31 1 G 2 67° 73% - - 58° 102.7° 57.1° - - -
6/21 11:20pm 39 1 G 2 67° 73% - - 58° 102.7° 57.1° - - -
6/21 11:10pm 0 0 G 0 68° 72% - - 59° 102.7° 57.1° - - -
6/21 11:00pm 59 0 G 1 68° 71% - - 59° 102.7° 57.1° - - -
6/21 10:50pm 51 0 G 1 69° 70% - - 59° 102.7° 57.1° - - -
6/21 10:40pm 52 1 G 1 69° 69% - - 59° 102.7° 57.1° - - -
6/21 10:30pm 205 1 G 2 70° 69% - - 59° 102.7° 57.1° - - -
6/21 10:20pm 12 0 G 1 70° 68% - - 59° 102.7° 57.1° - - -
6/21 10:10pm 228 1 G 2 71° 67% - - 59° 102.7° 57.1° - - -
6/21 10:00pm 154 1 G 3 72° 65% - - 59° 102.7° 57.1° - - -
6/21 9:50pm 194 2 G 4 73° 64% - - 60° 102.7° 57.1° - - -
6/21 9:40pm 191 3 G 5 73° 63% - - 59° 102.7° 57.1° - - -
6/21 9:30pm 193 4 G 6 73° 62% - - 60° 102.7° 57.1° - - -
6/21 9:20pm 195 2 G 4 74° 62% - - 60° 102.7° 57.1° - - -
6/21 9:10pm 217 2 G 4 74° 61% - - 60° 102.7° 57.1° - - -
6/21 9:00pm 224 1 G 2 75° 60% - - 60° 102.7° 57.1° - - -
6/21 8:50pm 212 2 G 5 76° 58% - - 60° 102.7° 57.1° - - -
6/21 8:40pm 183 4 G 8 77° 57% - - 60° 102.7° 57.1° - - -
6/21 8:30pm 184 7 G 10 78° 54% - - 60° 102.7° 57.1° - - -
6/21 8:20pm 178 5 G 9 80° 52% - - 61° 102.7° 57.1° - - -
6/21 8:10pm 191 5 G 9 80° 51% - - 61° 102.7° 57.1° - - -
6/21 8:00pm 186 3 G 6 81° 49% - - 61° 102.7° 57.1° - - -
6/21 7:50pm 152 6 G 8 82° 48% - - 61° 102.7° 57.1° - - -
6/21 7:40pm 152 6 G 10 83° 47% - - 61° 102.7° 57.1° - - -
6/21 7:30pm 147 7 G 10 84° 45% - - 61° 102.7° 57.1° - - -
6/21 7:20pm 154 6 G 9 85° 44% - - 61° 102.7° 57.1° - - -
6/21 7:10pm 159 6 G 11 86° 43% - - 61° 102.7° 57.1° - - -
6/21 7:00pm 161 5 G 9 87° 42% - - 61° 102.7° 57.1° - - -
6/21 6:50pm 165 5 G 10 87° 42% - - 61° 102.7° 57.1° - - -
6/21 6:40pm 166 5 G 9 87° 41% - - 61° 102.7° 57.1° - - -
6/21 6:30pm 159 6 G 12 88° 41% - - 61° 102.7° 57.1° - - -
6/21 6:20pm 163 6 G 11 88° 40% - - 61° 102.7° 57.1° - - -
6/21 6:10pm 161 6 G 12 89° 39% - - 61° 102.7° 57.1° - - -
6/21 6:00pm 160 7 G 12 90° 38% - - 61° 102.7° 57.1° - - -
6/21 5:50pm 163 7 G 12 90° 37% - - 61° 102.7° 57.1° - - -
6/21 5:40pm 162 7 G 14 91° 36% - - 60° 102.7° 57.1° - - -
6/21 5:30pm 163 7 G 12 92° 34% - - 60° 102.7° 57.1° - - -
6/21 5:20pm 163 7 G 14 93° 34% - - 60° 102.7° 57.1° - - -
6/21 5:10pm 163 6 G 11 94° 33% - - 60° 102.7° 57.1° - - -
6/21 5:00pm 165 6 G 14 94° 32% - - 60° 102.7° 57.1° - - -
6/21 4:50pm 157 7 G 13 94° 32% - - 60° 102.7° 57.1° - - -
6/21 4:40pm 160 8 G 13 95° 32% - - 60° 102.7° 57.1° - - -
6/21 4:30pm 153 8 G 13 96° 32% - - 61° 102.7° 57.1° - - -
6/21 4:20pm 149 8 G 14 96° 32% - - 61° 102.7° 57.1° - - -
6/21 4:10pm 169 7 G 14 98° 29% - - 61° 102.7° 57.1° - - -
6/21 4:00pm 181 9 G 14 97° 29% - - 60° 102.7° 57.1° - - -
6/21 3:50pm 181 10 G 15 98° 28% - - 59° 102.7° 57.1° - - -
6/21 3:40pm 183 10 G 14 98° 27% - - 59° 102.7° 57.1° - - -
6/21 3:30pm 178 8 G 13 99° 27% - - 59° 102.7° 57.1° - - -
6/21 3:20pm 175 9 G 16 99° 27% - - 59° 102.7° 57.1° - - -
6/21 3:10pm 160 8 G 15 99° 28% - - 60° 102.7° 57.1° - - -
6/21 3:00pm 163 8 G 15 99° 28% - - 60° 102.7° 57.1° - - -
6/21 2:50pm 187 10 G 15 100° 24% - - 57° 102.7° 57.1° - - -
6/21 2:40pm 198 10 G 16 101° 22% - - 55° 102.7° 57.1° - - -
6/21 2:30pm 192 10 G 15 101° 23% - - 57° 102.7° 57.1° - - -
6/21 2:20pm 205 9 G 14 101° 21% - - 54° 102.7° 57.1° - - -
6/21 2:10pm 184 12 G 16 101° 22% - - 55° 102.7° 57.1° - - -
6/21 2:00pm 190 11 G 15 101° 21% - - 54° 102.7° 57.1° - - -
6/21 1:50pm 188 9 G 15 101° 22% - - 56° 102.7° 57.1° - - -
6/21 1:40pm 176 8 G 14 102° 23% - - 57° 102.7° 57.1° - - -
6/21 1:30pm 186 9 G 14 101° 22% - - 55° 102.7° 57.1° - - -
6/21 1:20pm 194 9 G 15 101° 19% - - 52° 102.7° 57.1° - - -
6/21 1:10pm 176 7 G 14 102° 18% - - 50° 102.7° 57.1° - - -
6/21 1:00pm 162 5 G 11 101° 17% - - 49° 102.7° 57.1° - - -
6/21 12:50pm 162 6 G 12 101° 18% - - 50° 101.9° 57.1° - - -
6/21 12:40pm 172 7 G 12 101° 20% - - 53° 101.8° 57.1° - - -
6/21 12:30pm 151 7 G 12 100° 22% - - 55° 101.5° 57.1° - - -
6/21 12:20pm 143 8 G 13 99° 23% - - 55° 100.6° 57.1° - - -
6/21 12:10pm 154 7 G 14 99° 23% - - 55° 100.6° 57.1° - - -
6/21 12:00pm 159 6 G 12 98° 24% - - 55° 99.6° 57.1° - - -
6/21 11:50am 172 6 G 11 97° 25% - - 55° 97.9° 57.1° - - -
6/21 11:40am 165 6 G 11 97° 25% - - 55° 97.6° 57.1° - - -
6/21 11:30am 172 6 G 11 97° 25% - - 55° 97.6° 57.1° - - -
6/21 11:20am 185 6 G 9 96° 24% - - 54° 97.1° 57.1° - - -
6/21 11:10am 198 5 G 8 96° 25% - - 55° 96.5° 57.1° - - -
6/21 11:00am 202 5 G 9 95° 26% - - 55° 96.2° 57.1° - - -
6/21 10:50am 190 5 G 8 95° 26% - - 55° 96.2° 57.1° - - -
6/21 10:40am 189 3 G 7 95° 25% - - 53° 95.9° 57.1° - - -
6/21 10:30am 220 3 G 7 94° 25% - - 52° 95.3° 57.1° - - -
6/21 10:20am 216 3 G 5 94° 24% - - 52° 94.6° 57.1° - - -
6/21 10:10am 209 1 G 3 93° 23% - - 50° 94.6° 57.1° - - -
6/21 10:00am 208 1 G 4 92° 25% - - 51° 93° 57.1° - - -
6/21 9:50am 310 1 G 3 90° 27% - - 52° 91.8° 57.1° - - -
6/21 9:40am 255 2 G 3 88° 29% - - 52° 89.1° 57.1° - - -
6/21 9:30am 274 1 G 3 88° 29% - - 51° 88.3° 57.1° - - -
6/21 9:20am 244 1 G 3 85° 31% - - 51° 86.6° 57.1° - - -
6/21 9:10am 242 1 G 3 84° 34% - - 52° 84.8° 57.1° - - -
6/21 9:00am 218 2 G 3 82° 38% - - 54° 82.9° 57.1° - - -
6/21 8:50am 222 2 G 4 81° 41% - - 55° 81.4° 57.1° - - -
6/21 8:40am 209 1 G 2 79° 44% - - 55° 79.9° 57.1° - - -
6/21 8:30am 247 1 G 2 77° 48% - - 56° 78.4° 57.1° - - -
6/21 8:20am 302 1 G 2 76° 49% - - 55° 76.5° 57.1° - - -
6/21 8:10am 5 0 G 1 75° 51% - - 56° 76.1° 57.1° - - -
6/21 8:00am 24 1 G 3 72° 53% - - 54° 73.7° 57.1° - - -
6/21 7:50am 40 1 G 3 71° 58% - - 56° 72.1° 57.1° - - -
6/21 7:40am 30 0 G 1 69° 63% - - 56° 70.9° 57.1° - - -
6/21 7:30am 32 0 G 2 65° 72% - - 56° 69.7° 57.1° - - -
6/21 7:20am 245 1 G 2 63° 76% - - 55° 69.7° 57.1° - - -
6/21 7:10am 206 1 G 2 62° 78% - - 55° 69.7° 57.1° - - -
6/21 7:00am 192 1 G 2 60° 82% - - 54° 69.7° 57.1° - - -
6/21 6:50am 188 1 G 1 60° 81% - - 54° 69.7° 57.1° - - -
6/21 6:40am 32 1 G 1 59° 84% - - 55° 69.7° 57.1° - - -
6/21 6:30am 40 2 G 2 58° 85% - - 54° 69.7° 57.1° - - -
6/21 6:20am 24 1 G 2 59° 82% - - 53° 69.7° 57.1° - - -
6/21 6:10am 75 2 G 3 58° 86% - - 54° 69.7° 57.1° - - -
6/21 6:00am 17 1 G 2 59° 83% - - 54° 69.7° 57.3° - - -
6/21 5:50am 90 0 G 1 59° 86% - - 55° 69.7° 57.5° - - -
6/21 5:40am 222 1 G 1 58° 84% - - 53° 69.7° 57.5° - - -
6/21 5:30am 122 0 G 1 60° 84% - - 55° 69.7° 59° - - -
6/21 5:20am 69 0 G 1 59° 85% - - 55° 69.7° 59° - - -
6/21 5:10am 30 0 G 2 60° 83% - - 55° 69.7° 59° - - -
6/21 5:00am 27 1 G 2 60° 83% - - 55° 69.7° 59.5° - - -
6/21 4:50am 62 1 G 2 60° 82% - - 55° 69.7° 59.5° - - -
6/21 4:40am 60 1 G 2 60° 81% - - 55° 69.7° 59.5° - - -
6/21 4:30am 72 0 G 1 61° 83% - - 56° 69.7° 59.5° - - -
6/21 4:20am 48 1 G 2 60° 84% - - 55° 69.7° 59.5° - - -
6/21 4:10am 24 1 G 2 60° 82% - - 55° 69.7° 59.7° - - -
6/21 4:00am 51 2 G 2 61° 81% - - 55° 69.7° 60.1° - - -
6/21 3:50am 71 0 G 2 62° 79% - - 55° 69.7° 60.1° - - -
6/21 3:40am 80 1 G 2 61° 82% - - 55° 69.7° 60.1° - - -
6/21 3:30am 235 0 G 1 61° 79% - - 55° 69.7° 60.3° - - -
6/21 3:20am 71 1 G 2 62° 80% - - 56° 69.7° 61.5° - - -
6/21 3:10am 240 0 G 1 62° 79% - - 55° 69.7° 61.5° - - -
6/21 3:00am 60 1 G 2 62° 79% - - 56° 69.7° 61.9° - - -
6/21 2:50am 153 0 G 1 63° 77% - - 55° 69.7° 62° - - -
6/21 2:40am 30 0 G 1 64° 74% - - 56° 69.7° 62.9° - - -
6/21 2:30am 66 1 G 2 64° 76% - - 56° 69.7° 63.5° - - -
6/21 2:20am 63 0 G 1 64° 76% - - 56° 69.7° 63.5° - - -
6/21 2:10am 32 1 G 1 64° 75% - - 56° 69.7° 63.9° - - -
6/21 2:00am 64 1 G 1 64° 75% - - 56° 69.7° 64° - - -
6/21 1:50am 13 1 G 2 65° 74% - - 56° 69.7° 64.1° - - -
6/21 1:40am 38 1 G 2 65° 74% - - 56° 69.7° 64.4° - - -
6/21 1:30am 47 1 G 2 65° 73% - - 57° 69.7° 64.9° - - -
6/21 1:20am 53 1 G 2 65° 73% - - 56° 69.7° 64.9° - - -
6/21 1:10am 45 1 G 2 66° 73% - - 57° 69.7° 64.9° - - -
6/21 1:00am 25 1 G 1 66° 71% - - 56° 69.7° 65.5° - - -
6/21 12:50am 35 0 G 1 67° 69% - - 57° 69.7° 65.8° - - -
6/21 12:40am 61 1 G 2 66° 71% - - 57° 69.7° 65.8° - - -
6/21 12:30am 263 1 G 2 68° 69% - - 57° 69.7° 66° - - -
6/21 12:20am 119 0 G 1 69° 68% - - 58° 69.6° 67.5° - - -
6/21 12:10am 77 1 G 2 68° 68% - - 57° 69° 67.5° - - -
6/21 12:00am 15 1 G 2 68° 67% - - 57° 104° 59° - - -
6/20 11:50pm 24 1 G 2 69° 66% - - 57° 104° 59° - - -
6/20 11:40pm 245 0 G 1 70° 65% - - 57° 104° 59° - - -
6/20 11:30pm 194 0 G 2 70° 64% - - 58° 104° 59° - - -
6/20 11:20pm 0 0 G 0 71° 62% - - 57° 104° 59° - - -
6/20 11:10pm 205 0 G 2 72° 60% - - 57° 104° 59° - - -
6/20 11:00pm 68 0 G 1 72° 59% - - 57° 104° 59° - - -
6/20 10:50pm 46 0 G 1 73° 58% - - 57° 104° 59° - - -
6/20 10:40pm 61 1 G 1 73° 58% - - 57° 104° 59° - - -
6/20 10:30pm 164 0 G 1 74° 57% - - 57° 104° 59° - - -
6/20 10:20pm 208 1 G 2 75° 55% - - 57° 104° 59° - - -
6/20 10:10pm 147 0 G 1 76° 52% - - 57° 104° 59° - - -
6/20 10:00pm 106 0 G 1 76° 53% - - 57° 104° 59° - - -
6/20 9:50pm 311 0 G 1 77° 51% - - 57° 104° 59° - - -
6/20 9:40pm 72 0 G 1 77° 51% - - 57° 104° 59° - - -
6/20 9:30pm 25 1 G 3 78° 49% - - 58° 104° 59° - - -
6/20 9:20pm 66 1 G 1 79° 48% - - 58° 104° 59° - - -
6/20 9:10pm 20 0 G 2 80° 47% - - 58° 104° 59° - - -
6/20 9:00pm 100 0 G 2 80° 46% - - 58° 104° 59° - - -
6/20 8:50pm 277 0 G 1 81° 45% - - 58° 104° 59° - - -
6/20 8:40pm 346 1 G 2 82° 44% - - 58° 104° 59° - - -
6/20 8:30pm 25 2 G 2 82° 44% - - 58° 104° 59° - - -
6/20 8:20pm 255 1 G 2 84° 41% - - 57° 104° 59° - - -
6/20 8:10pm 203 2 G 5 86° 38% - - 57° 104° 59° - - -
6/20 8:00pm 155 4 G 7 87° 36% - - 57° 104° 59° - - -
6/20 7:50pm 153 4 G 6 87° 35% - - 57° 104° 59° - - -
6/20 7:40pm 171 4 G 7 88° 34% - - 57° 104° 59° - - -
6/20 7:30pm 172 4 G 7 89° 34% - - 57° 104° 59° - - -
6/20 7:20pm 175 5 G 9 90° 33% - - 57° 104° 59° - - -
6/20 7:10pm 167 4 G 9 91° 33% - - 58° 104° 59° - - -
6/20 7:00pm 165 4 G 9 91° 33% - - 58° 104° 59° - - -
6/20 6:50pm 169 6 G 11 91° 33% - - 58° 104° 59° - - -
6/20 6:40pm 166 6 G 12 91° 33% - - 58° 104° 59° - - -
6/20 6:30pm 166 7 G 12 92° 32% - - 58° 104° 59° - - -
6/20 6:20pm 164 7 G 12 93° 32% - - 59° 104° 59° - - -
6/20 6:10pm 167 6 G 11 94° 32% - - 59° 104° 59° - - -
6/20 6:00pm 167 6 G 12 94° 31% - - 59° 104° 59° - - -